logo
App data

Farm Frenzy 3

Manage five farms around the world and try your hand at penguin-breeding and jewelry-making in Farm Frenzy 3! Features 95 outrageously fun levels, 30 wacky animals and more upgrades than there are ears in a corn field!
Store | Hub | SteamDB | Site
Developer: Alawar Publisher: iWin
Genre: Casual
Languages: English
Tags: Casual (48), Puzzle (26), Agriculture (26), Time Management (6)
Category: Single-player
Release date: Sep 11, 2009
Price: $9.99
Owners: 0 .. 20,000
Followers: 112
Peak concurrent players yesterday: 4
YouTube stats: 3 views and 0 comments for videos uploaded last week, 1 new videos uploaded yesterday.

Steam Spy is still in beta, so expect major bugs.

Owners data:

Access restricted.

This feature is only available to users with special access rights. Sorry.

If you want to proceed, you need to register or log in first and then back Steam Spy on Patreon. Look for Indie or Pro pledge.

Don't forget to use the same email as on Steam Spy!

Audience in 2 weeks:

Access restricted.

This feature is only available to users with special access rights. Sorry.

If you want to proceed, you need to register or log in first and then back Steam Spy on Patreon. Look for Indie or Pro pledge.

Don't forget to use the same email as on Steam Spy!

Peak daily concurrent players:

CCU data courtesy of SteamDB. Used with permission.

Hourly concurrent players:

Daily Twitch stats:

Hourly Twitch stats:

YouTube:

The views data is based on top 50 videos uploaded last week. Actual number of views might be more than the number shown.

The displayed number of videos uploaded yesterday is limited to 50, so if there were more videos uploaded, the number will still show 50.

If the game has commonly used word as its name (like "FEAR" or "Volume") its number of Youtube views might be wrong.

Games similar to this one:

# Game Release date
Price
Score rank
(Userscore / Metascore)
Owners
Players
Playtime (Median)
1 Lost Lands: The Four Horsemen Jul 14, 2015 $2.4497% (97%)0 .. 20,0000%00:00 (00:00)
2 Flowers -Le volume sur printemps- Aug 17, 2016 $19.9997% (97%)0 .. 20,0000%00:00 (00:00)
3 Eventide: Slavic Fable Jan 28, 2016 $9.9995% (96%)50,000 .. 100,0003.45%58:24 (58:24)
4 Gnomes Garden 2 May 18, 2016 $4.99N/A (N/A)20,000 .. 50,0000.45%00:48 (00:16)
5 Legends of Atlantis: Exodus Apr 9, 2012 $6.99N/A (N/A)0 .. 20,0000%00:00 (00:00)
6 Peggle Nights Oct 15, 2008 $4.9990% (94%/76%)200,000 .. 500,0000%00:00 (00:00)
7 Hidden Object Bundle 4 in 1 Jun 1, 2014 $7.9987% (93%)20,000 .. 50,0002.22%00:30 (00:10)
8 Alice's Patchwork Mar 3, 2016 $0.4987% (93%)20,000 .. 50,0001.05%03:06 (02:04)
9 Chuzzle Deluxe Aug 30, 2006 $4.9987% (93%)50,000 .. 100,0000%00:00 (00:00)
10 YOU DON’T KNOW JACK Feb 8, 2011 N/A83% (92%/71%)0 .. 20,0000%00:00 (00:00)
11 Princess Maker 2 Refine Sep 28, 2016 $19.9983% (92%)20,000 .. 50,0000%00:00 (00:00)
12 Farm Frenzy 2 Aug 27, 2008 $4.99N/A (N/A)0 .. 20,0000%00:00 (00:00)
13 Putt-Putt and Pep's Balloon-o-Rama Jan 1, 1996 $4.99N/A (N/A)0 .. 20,0000%00:00 (00:00)
14 Grim Legends 3: The Dark City Jun 2, 2016 $9.9977% (90%)20,000 .. 50,0000%00:00 (00:00)
15 Kitty Cat: Jigsaw Puzzles Jul 18, 2016 $1.9977% (90%)20,000 .. 50,0002.1%01:21 (01:21)
16 Super Jagua Sep 15, 2016 $0.9973% (89%)0 .. 20,0000%00:00 (00:00)
17 Stikbold! A Dodgeball Adventure Apr 1, 2016 $9.9973% (89%)50,000 .. 100,0000%00:00 (00:00)
18 Shufflepuck Cantina Deluxe Dec 6, 2013 $9.9971% (88%)100,000 .. 200,0000.2%08:21 (02:47)
19 Lost Grimoires: Stolen Kingdom Nov 10, 2016 $9.9971% (88%)0 .. 20,0000%00:00 (00:00)
20 Luxor 3 Nov 13, 2007 $9.9971% (88%)20,000 .. 50,0000%00:00 (00:00)
21 Hidden Object 6-in-1 bundle Mar 16, 2016 $11.9971% (88%)20,000 .. 50,0005.41%01:46 (01:10)
22 Delicious! Pretty Girls Mahjong Solitaire Oct 14, 2016 $0.9968% (87%)50,000 .. 100,0001.92%02:22 (01:09)
23 Burnout Paradise: The Ultimate Box Feb 3, 2009 $19.9968% (87%/87%)500,000 .. 1,000,0000.66%00:44 (00:23)
24 Puzzler World May 28, 2010 $4.9968% (87%)50,000 .. 100,0000%00:00 (00:00)
25 Plant Tycoon Sep 27, 2007 $9.99N/A (N/A)0 .. 20,0000%00:00 (00:00)
26 Space Codex May 17, 2016 $0.9965% (86%)50,000 .. 100,0001.02%00:25 (00:16)
27 Gnomes Garden Dec 18, 2015 $4.9962% (85%)20,000 .. 50,0000.75%02:29 (01:28)
28 SimpleRockets Jun 3, 2015 $7.9962% (85%)20,000 .. 50,0002.17%00:14 (00:04)
29 Brink of Consciousness: The Lonely Hearts Murders Nov 24, 2014 $9.9960% (84%)0 .. 20,0000%00:00 (00:00)
30 Little Racers STREET Feb 6, 2014 $5.9957% (83%/62%)100,000 .. 200,0000%00:00 (00:00)
31 LUXOR: Mah Jong Jul 13, 2009 $9.99N/A (N/A)50,000 .. 100,0000%00:00 (00:00)
32 Combat Wings: Battle of Britain Oct 14, 2009 $4.9955% (82%)50,000 .. 100,0002.02%11:30 (07:39)
33 House of Snark 6-in-1 Bundle Jul 20, 2016 $11.99N/A (N/A)0 .. 20,0000%00:00 (00:00)
34 LogicBots Feb 8, 2017 $9.9955% (82%)0 .. 20,0000%00:00 (00:00)
35 My Riding Stables: Life with Horses Mar 27, 2014 $9.9955% (82%)0 .. 20,0000%00:00 (00:00)
36 Crash Dive Jul 6, 2015 $6.9953% (81%)0 .. 20,0000%00:00 (00:00)
37 Rotastic Oct 11, 2012 $9.99N/A (N/A)0 .. 20,0000%00:00 (00:00)
38 7 Wonders: Treasures of Seven Nov 14, 2008 $9.9951% (80%)20,000 .. 50,0000%00:00 (00:00)
39 Mystery Case Files: Madame Fate Dec 14, 2007 $6.99N/A (N/A)0 .. 20,0000%00:00 (00:00)
40 Typer Shark! Deluxe Aug 30, 2006 $4.9946% (78%)20,000 .. 50,0000%00:00 (00:00)
41 Rube Works: The Official Rube Goldberg Invention Game Apr 19, 2014 $4.99N/A (N/A)0 .. 20,0000%00:00 (00:00)
42 Buzz Aldrin's Space Program Manager Oct 31, 2014 $29.9946% (78%/62%)0 .. 20,0000%00:00 (00:00)
43 Qvadriga Jun 13, 2014 $19.9946% (78%/72%)20,000 .. 50,0000%00:00 (00:00)
44 Echelon: Wind Warriors Feb 3, 2004 $3.9945% (77%/63%)0 .. 20,0000%00:00 (00:00)
45 Sea Legends: Phantasmal Light Collector's Edition Jan 15, 2012 $4.9943% (76%)20,000 .. 50,0000%00:00 (00:00)
46 Virtual Villagers: The Lost Children Feb 14, 2007 $9.99N/A (N/A)0 .. 20,0000%00:00 (00:00)
47 The Wizard's Pen Sep 16, 2008 $4.99N/A (N/A)20,000 .. 50,0000%00:00 (00:00)
48 Teddy Floppy Ear - The Race May 22, 2015 $4.9939% (74%)100,000 .. 200,0000.93%01:08 (00:45)
49 Toilet Tycoon Mar 1, 2000 $4.9939% (74%)0 .. 20,0000%00:00 (00:00)
50 Amazing Adventures Around the World Sep 17, 2008 $4.99N/A (N/A)20,000 .. 50,0000%00:00 (00:00)
51 Cooking Dash Aug 12, 2009 $9.99N/A (N/A)0 .. 20,0000%00:00 (00:00)
52 Ski Region Simulator - Gold Edition Jan 16, 2013 $9.9937% (73%)20,000 .. 50,0000%00:00 (00:00)
53 Amazing Adventures The Lost Tomb Nov 5, 2007 $4.99N/A (N/A)20,000 .. 50,0000%00:00 (00:00)
54 Democracy 3 Africa Apr 12, 2016 $14.9935% (72%)0 .. 20,0000%00:00 (00:00)
55 Evolution Planet: Gold Edition Jul 7, 2016 $4.99N/A (N/A)0 .. 20,0000%00:00 (00:00)
56 Hotel Dash Suite Success Dec 24, 2009 $6.99N/A (N/A)0 .. 20,0000%00:00 (00:00)
57 Football Mogul 2014 Sep 4, 2013 $4.99N/A (N/A)20,000 .. 50,0000%00:00 (00:00)
58 Chronicle Keepers: The Dreaming Garden Jun 11, 2015 $4.9934% (71%)0 .. 20,0000%00:00 (00:00)
59 StuntMANIA Reloaded Nov 13, 2014 $4.9932% (70%)20,000 .. 50,0000%00:00 (00:00)
60 IL-2 Sturmovik: Battle of Stalingrad Oct 22, 2014 $49.9932% (70%/74%)50,000 .. 100,0000%00:00 (00:00)
61 Splendor Sep 17, 2015 $9.9931% (69%)0 .. 20,0000%00:00 (00:00)
62 Scrabble Jun 10, 2013 $9.99N/A (N/A)0 .. 20,0000%00:00 (00:00)
63 MiniDrivers Aug 20, 2015 $5.9931% (69%)20,000 .. 50,0001.54%00:32 (00:10)
64 Little Farm Jun 10, 2008 $9.9929% (68%)20,000 .. 50,0000%00:00 (00:00)
65 Chocolatier: Decadence by Design Aug 12, 2009 $9.9928% (67%)0 .. 20,0000%00:00 (00:00)
66 Eagle Flight Dec 20, 2016 $39.9928% (67%/74%)0 .. 20,0000%00:00 (00:00)
67 Twisted Lands Trilogy: Collector's Edition Oct 28, 2015 $19.9926% (66%)0 .. 20,0000.79%00:04 (00:01)
68 Zooloretto Nov 1, 2011 $2.99N/A (N/A)0 .. 20,0004.76%17:19 (05:46)
69 Farming 6-in-1 bundle Jun 2, 2016 $5.99N/A (N/A)0 .. 20,0000%00:00 (00:00)
70 Obliteracers Feb 23, 2016 $14.9925% (65%/78%)0 .. 20,0000%00:00 (00:00)
71 Castle: Never Judge a Book by its Cover Jul 9, 2013 $9.9924% (64%)20,000 .. 50,0000%00:00 (00:00)
72 Mahjong Pretty Girls Battle : School Girls Edition Jun 22, 2015 $14.9924% (64%)20,000 .. 50,0001.23%07:54 (02:38)
73 Pro Cycling Manager 2014 Jun 19, 2014 $9.9924% (64%)0 .. 20,0000%00:00 (00:00)
74 Aerofly FS 1 Flight Simulator Oct 17, 2012 $19.9923% (63%)0 .. 20,0000%00:00 (00:00)
75 Meridian: Age of Invention Jan 28, 2013 $2.9923% (63%)20,000 .. 50,0003.17%01:51 (01:14)
76 City Life 2008 Jul 18, 2008 $9.9923% (63%)20,000 .. 50,0000%00:00 (00:00)
77 PAC-MAN CHAMPIONSHIP EDITION 2 Sep 13, 2016 $12.9923% (63%)20,000 .. 50,0003.64%00:16 (00:10)
78 Railroad Pioneer Oct 17, 2003 $4.9922% (62%/50%)20,000 .. 50,0000%00:00 (00:00)
79 Trackmania Turbo Mar 24, 2016 $39.9921% (61%)50,000 .. 100,0008.7%01:27 (00:31)
80 Football Club Simulator - FCS 18 Nov 3, 2017 $9.9519% (60%)0 .. 20,0000%00:00 (00:00)
81 Contract With The Devil Dec 11, 2015 $4.9918% (59%)20,000 .. 50,0001.42%03:34 (02:39)
82 Hacker Evolution: Untold Sep 14, 2010 $4.9918% (59%)200,000 .. 500,0000.51%01:31 (00:40)
83 Riding Star - Horse Championship! Mar 27, 2014 $9.99N/A (N/A)0 .. 20,0000%00:00 (00:00)
84 DinerTown Tycoon Sep 30, 2009 $9.99N/A (N/A)0 .. 20,0000%00:00 (00:00)
85 Trackday Manager Mar 31, 2016 $11.9916% (57%)0 .. 20,0000%00:00 (00:00)
86 Mystery Masters: Psycho Train Deluxe Edition Feb 3, 2015 $9.9915% (56%)20,000 .. 50,0002.84%08:37 (11:22)
87 Luxor: Quest for the Afterlife Dec 15, 2008 $9.99N/A (N/A)20,000 .. 50,0000%00:00 (00:00)
88 Cities XL Platinum Feb 6, 2013 $9.9915% (55%)200,000 .. 500,0000%00:00 (00:00)
89 Gems of the Aztecs Apr 22, 2016 $4.9914% (54%)50,000 .. 100,0000.83%03:14 (01:56)
90 Chess Knight 2 Sep 11, 2016 $4.9913% (53%)50,000 .. 100,0000.71%00:49 (00:16)
91 Pacific Storm Allies May 25, 2007 $1.5913% (53%/60%)50,000 .. 100,0000%00:00 (00:00)
92 My Best Friends - Cats & Dogs Mar 27, 2014 $9.99N/A (N/A)0 .. 20,0000%00:00 (00:00)
93 Shadows: Price For Our Sins Bonus Edition Mar 21, 2013 $9.9911% (50%)50,000 .. 100,0000%00:00 (00:00)
94 Pure Pool Jul 31, 2014 $9.9911% (49%/68%)0 .. 20,0000%00:00 (00:00)
95 300 Dwarves Jun 17, 2013 $6.9911% (49%)0 .. 20,0000%00:00 (00:00)
96 Ghost Encounters: Deadwood - Collector's Edition Mar 13, 2015 $4.9910% (47%)0 .. 20,0000%00:00 (00:00)
97 My Riding Stables - your horse world Mar 28, 2014 $9.99N/A (N/A)0 .. 20,0000%00:00 (00:00)
98 Cosplay Maker Dec 10, 2015 $14.99N/A (N/A)0 .. 20,0000%00:00 (00:00)
99 Ludo Supremo Jun 8, 2016 $2.998% (45%)20,000 .. 50,0001.39%06:00 (04:00)
100 Lords of Football Apr 5, 2013 $14.998% (45%/52%)20,000 .. 50,0000%00:00 (00:00)
101 Transport Giant Jun 8, 2004 $9.998% (45%)20,000 .. 50,0000%00:00 (00:00)
102 Professional Farmer 2014 Nov 27, 2013 $14.998% (44%)200,000 .. 500,0001.05%00:01 (00:00)
103 Silent Hunter 5: Battle of the Atlantic Mar 2010 $9.997% (41%/62%)50,000 .. 100,0000%00:00 (00:00)
104 Echelon Apr 15, 2001 $3.996% (39%/70%)20,000 .. 50,0000%00:00 (00:00)
105 Airport Firefighters - The Simulation May 13, 2015 $14.995% (35%)20,000 .. 50,0000%00:00 (00:00)
106 Princess Isabella: The Rise of an Heir May 12, 2016 $9.995% (35%)0 .. 20,0000%00:00 (00:00)
107 Industry Empire Jul 30, 2014 $19.994% (31%)20,000 .. 50,0000%00:00 (00:00)
108 Fill Up! Feb 17, 2016 $2.99N/A (N/A)0 .. 20,0000%00:00 (00:00)
109 Driving School Simulator Sep 25, 2014 $14.992% (21%)0 .. 20,0000%00:00 (00:00)
110 Switch Galaxy Ultra Nov 20, 2015 $9.992% (17%)20,000 .. 50,0001.56%03:04 (01:01)
111 Luxury Hotel Emporium Aug 7, 2015 $4.99N/A (N/A)0 .. 20,0000%00:00 (00:00)
112 Black Viper: Sophia's Fate Sep 5, 2014 $9.99N/A (N/A)0 .. 20,0000%00:00 (00:00)
113 Escape The Past Sep 14, 2016 $4.99N/A (N/A)0 .. 20,0000%00:00 (00:00)
114 Discovery! A Seek and Find Adventure Jul 29, 2008 $9.99N/A (N/A)0 .. 20,0000.85%08:50 (02:56)
115 Rush for gold: California Mar 9, 2016 $3.99N/A (N/A)50,000 .. 100,0000%00:00 (00:00)
116 Them - The Summoning May 16, 2014 $4.99N/A (N/A)0 .. 20,0000%00:00 (00:00)
117 My Pet Hotel Mar 27, 2014 $9.99N/A (N/A)0 .. 20,0000%00:00 (00:00)
118 Tropical Fish Shop 2 Feb 10, 2012 $3.99N/A (N/A)0 .. 20,0000.29%00:33 (00:11)
119 Lost Legends: The Weeping Woman Collector's Edition Oct 21, 2015 $14.99N/A (N/A)20,000 .. 50,0000.78%04:03 (01:21)
120 Solitaire Christmas. Match 2 Cards Dec 24, 2015 $4.99N/A (N/A)20,000 .. 50,0002.54%05:04 (06:13)
121 Heartomics: Nokori Mar 25, 2016 $1.99N/A (N/A)0 .. 20,0000%00:00 (00:00)
122 Barnyard Mahjong 3 Jul 29, 2016 $4.99N/A (N/A)50,000 .. 100,0001.43%04:34 (03:02)
123 Dessert Storm Oct 23, 2016 $1.99N/A (N/A)20,000 .. 50,0000%00:00 (00:00)
124 The Hidden Dragon Jul 26, 2016 $4.99N/A (N/A)0 .. 20,0000%00:00 (00:00)
125 Bubble Blowout Oct 24, 2016 $1.99N/A (N/A)20,000 .. 50,0000%00:00 (00:00)
126 Adventures of Robinson Crusoe Jan 9, 2015 $9.99N/A (N/A)20,000 .. 50,0000%00:00 (00:00)
127 Block Blowout Oct 26, 2016 $1.99N/A (N/A)20,000 .. 50,0001.46%05:48 (03:52)
128 Fantastic 4 In A Row 2 Aug 15, 2016 $1.99N/A (N/A)50,000 .. 100,0000.69%00:15 (00:05)

Owners of this game also own:

Access restricted.

This feature is only available to users with special access rights. Sorry.

If you want to proceed, you need to register or log in first and then back Steam Spy on Patreon. Look for Indie or Pro pledge.

Don't forget to use the same email as on Steam Spy!

Playtime distribution:

Access restricted.

This feature is only available to users with special access rights. Sorry.

If you want to proceed, you need to register or log in first and then back Steam Spy on Patreon. Look for Indie or Pro pledge.

Don't forget to use the same email as on Steam Spy!

Playtime (2 weeks):

Access restricted.

This feature is only available to users with special access rights. Sorry.

If you want to proceed, you need to register or log in first and then back Steam Spy on Patreon. Look for Indie or Pro pledge.

Don't forget to use the same email as on Steam Spy!

User reviews:

Login required.

Please register or log in to see this information.